Time;durP1;ratioP1;P1;durP2;ratioP2;P2;SDS_P1;SDS_P2;PMS_P1;PMS_P2;Temp;Humidity;BMP_temperature;BMP_pressure;BME280_temperature;BME280_humidity;BME280_pressure;Samples;Min_cycle;Max_cycle;Signal;HPM_P1;HPM_P2
2021/06/26 00:00:53;;;;;;;;;3.50;3.25;;;;;24.31;50.02;101407.66;5017284;27;50886;-44
2021/06/26 00:03:26;;;;;;;;;4.25;2.75;;;;;24.30;50.20;101405.94;5019856;27;51270;-43
2021/06/26 00:05:53;;;;;;;;;3.00;3.00;;;;;24.30;50.06;101399.56;5017784;28;51182;-41
2021/06/26 00:08:21;;;;;;;;;3.00;3.00;;;;;24.29;50.15;101407.03;5014942;28;51862;-40
2021/06/26 00:10:47;;;;;;;;;5.75;4.75;;;;;24.28;49.87;101401.69;5014874;27;51365;-41
2021/06/26 00:13:17;;;;;;;;;3.25;3.00;;;;;24.29;50.10;101417.25;5015676;28;51085;-41
2021/06/26 00:15:43;;;;;;;;;5.75;5.00;;;;;24.27;49.99;101408.31;5015353;28;51319;-41
2021/06/26 00:18:09;;;;;;;;;2.00;2.00;;;;;24.27;50.32;101411.06;5019133;28;52089;-42
2021/06/26 00:20:35;;;;;;;;;4.25;4.00;;;;;24.26;50.05;101417.69;5019508;28;51075;-41
2021/06/26 00:23:00;;;;;;;;;3.00;3.00;;;;;24.26;49.98;101412.16;5028684;28;50992;-42
2021/06/26 00:25:26;;;;;;;;;5.00;4.00;;;;;24.26;50.42;101412.16;5015308;28;51163;-40
2021/06/26 00:27:52;;;;;;;;;2.75;1.50;;;;;24.26;50.25;101406.63;5037842;27;51883;-40
2021/06/26 00:30:19;;;;;;;;;4.00;4.00;;;;;24.25;50.15;101405.78;5016637;28;51239;-41
2021/06/26 00:32:45;;;;;;;;;5.00;3.00;;;;;24.24;50.27;101408.78;5016291;28;51160;-44
2021/06/26 00:35:12;;;;;;;;;3.00;3.00;;;;;24.25;50.06;101410.47;5018375;28;50886;-41
2021/06/26 00:37:38;;;;;;;;;4.75;4.50;;;;;24.24;50.12;101414.31;5014424;28;50960;-39
2021/06/26 00:40:05;;;;;;;;;3.75;3.50;;;;;24.24;49.92;101415.16;5015235;28;50986;-41
2021/06/26 00:42:40;;;;;;;;;9.25;6.25;;;;;24.24;50.22;101411.56;5015316;28;51099;-42
2021/06/26 00:45:10;;;;;;;;;5.50;4.00;;;;;24.25;50.13;101410.47;5016078;27;50970;-42
2021/06/26 00:47:37;;;;;;;;;4.50;4.50;;;;;24.24;49.83;101419.84;5023036;28;51842;-40
2021/06/26 00:50:11;;;;;;;;;4.25;4.00;;;;;24.23;50.21;101410.72;5032811;27;50926;-41
2021/06/26 00:52:36;;;;;;;;;4.00;2.25;;;;;24.23;50.37;101401.56;5018663;28;50958;-41
2021/06/26 00:55:02;;;;;;;;;5.50;4.75;;;;;24.23;49.99;101396.03;5028346;28;50936;-42
2021/06/26 00:57:28;;;;;;;;;5.75;4.00;;;;;24.23;50.14;101390.50;5022339;28;51018;-40
2021/06/26 00:59:53;;;;;;;;;2.00;2.00;;;;;24.23;50.05;101373.88;5014507;28;52473;-42
2021/06/26 01:02:19;;;;;;;;;6.00;4.00;;;;;24.23;50.49;101376.66;5014827;28;51176;-45
2021/06/26 01:04:44;;;;;;;;;5.25;4.50;;;;;24.23;50.29;101379.41;5014995;28;52122;-42
2021/06/26 01:07:09;;;;;;;;;3.25;3.25;;;;;24.23;50.09;101380.25;5018750;27;51035;-42
2021/06/26 01:09:35;;;;;;;;;5.00;3.00;;;;;24.23;50.30;101377.50;5016803;28;51363;-43
2021/06/26 01:12:00;;;;;;;;;5.50;3.75;;;;;24.23;50.34;101374.72;5016615;28;51082;-41
2021/06/26 01:14:29;;;;;;;;;4.00;3.00;;;;;24.22;50.55;101369.44;5017130;28;51273;-44
2021/06/26 01:16:55;;;;;;;;;5.50;3.75;;;;;24.23;50.09;101365.56;5016021;28;52300;-42
2021/06/26 01:19:21;;;;;;;;;7.50;3.50;;;;;24.23;50.24;101365.56;5013392;27;51428;-43
2021/06/26 01:21:52;;;;;;;;;4.50;4.00;;;;;24.23;50.55;101368.34;5014785;27;51087;-41
2021/06/26 01:24:18;;;;;;;;;3.00;3.00;;;;;24.22;50.75;101378.56;5019577;28;51457;-40
2021/06/26 01:26:43;;;;;;;;;6.00;3.75;;;;;24.22;50.65;101369.44;5014817;28;51124;-45
2021/06/26 01:29:10;;;;;;;;;4.25;4.00;;;;;24.21;50.22;101370.50;5042521;27;51093;-44
2021/06/26 01:31:35;;;;;;;;;6.00;5.00;;;;;24.22;50.50;101369.44;5012550;28;51198;-44
2021/06/26 01:34:01;;;;;;;;;7.50;4.50;;;;;24.22;50.50;101373.03;5014156;28;51386;-44
2021/06/26 01:36:26;;;;;;;;;6.00;5.00;;;;;24.21;50.62;101362.22;5013946;28;51782;-41
2021/06/26 01:38:55;;;;;;;;;4.75;4.75;;;;;24.22;50.37;101369.44;5027124;28;50983;-41
2021/06/26 01:41:22;;;;;;;;;4.00;4.00;;;;;24.21;50.66;101357.50;5021905;28;51095;-42
2021/06/26 01:43:47;;;;;;;;;3.00;3.00;;;;;24.22;50.25;101355.59;5015567;28;51128;-43
2021/06/26 01:46:12;;;;;;;;;4.00;4.00;;;;;24.21;50.93;101354.75;5016564;28;51790;-43
2021/06/26 01:48:38;;;;;;;;;6.50;3.75;;;;;24.21;50.50;101354.75;5015781;28;51237;-43
2021/06/26 01:51:03;;;;;;;;;4.00;3.25;;;;;24.21;50.69;101357.50;5014787;28;51485;-44
2021/06/26 01:53:29;;;;;;;;;4.25;4.25;;;;;24.21;50.67;101357.50;5015574;28;51229;-42
2021/06/26 01:55:54;;;;;;;;;4.50;4.50;;;;;24.21;50.85;101353.91;5023203;27;50836;-42
2021/06/26 01:58:20;;;;;;;;;4.75;3.25;;;;;24.20;50.53;101358.59;5024135;28;51020;-44
2021/06/26 02:00:45;;;;;;;;;5.25;4.00;;;;;24.21;50.40;101348.38;5018189;27;51068;-41
2021/06/26 02:03:11;;;;;;;;;5.00;4.00;;;;;24.21;50.78;101351.13;5016557;27;50945;-42
2021/06/26 02:05:36;;;;;;;;;4.75;4.75;;;;;24.19;50.86;101346.69;5018025;27;52014;-42
2021/06/26 02:08:01;;;;;;;;;3.00;3.00;;;;;24.20;50.58;101355.81;5016861;27;51040;-43
2021/06/26 02:10:27;;;;;;;;;4.50;4.25;;;;;24.19;50.56;101356.91;5018569;27;51163;-44
2021/06/26 02:12:52;;;;;;;;;7.75;5.00;;;;;24.18;50.79;101353.28;5019220;28;50839;-43
2021/06/26 02:15:18;;;;;;;;;6.75;4.25;;;;;24.19;50.69;101354.13;5017070;28;50957;-47
2021/06/26 02:17:43;;;;;;;;;7.00;3.75;;;;;24.19;50.40;101351.38;5014171;28;51077;-43
2021/06/26 02:20:09;;;;;;;;;3.25;3.00;;;;;24.19;50.39;101357.75;5028160;28;51092;-45
2021/06/26 02:22:35;;;;;;;;;5.00;5.00;;;;;24.18;50.61;101355.22;5020788;28;51034;-42
2021/06/26 02:25:04;;;;;;;;;4.25;4.25;;;;;24.19;50.48;101359.69;5031348;28;50936;-42
2021/06/26 02:27:30;;;;;;;;;4.75;3.00;;;;;24.19;50.55;101360.53;5043264;27;50915;-44
2021/06/26 02:29:56;;;;;;;;;3.75;3.75;;;;;24.18;50.34;101361.59;5018071;28;51105;-41
2021/06/26 02:32:21;;;;;;;;;3.50;3.50;;;;;24.19;50.52;101356.91;5021653;28;50944;-45
2021/06/26 02:34:46;;;;;;;;;3.25;3.25;;;;;24.19;50.84;101356.91;5015718;28;51049;-42
2021/06/26 02:37:12;;;;;;;;;3.75;3.75;;;;;24.19;50.76;101354.97;5000123;28;51331;-42
2021/06/26 02:39:37;;;;;;;;;5.25;3.00;;;;;24.19;51.04;101354.97;5013315;28;51105;-42
2021/06/26 02:42:02;;;;;;;;;2.00;2.00;;;;;24.18;50.65;101347.75;5014301;28;50974;-44
2021/06/26 02:44:28;;;;;;;;;3.25;3.00;;;;;24.19;50.69;101349.44;5015870;28;53094;-43
2021/06/26 02:46:53;;;;;;;;;6.00;4.50;;;;;24.18;50.38;101350.53;5016769;28;51292;-42
2021/06/26 02:49:18;;;;;;;;;3.75;3.50;;;;;24.20;50.62;101353.06;5017968;28;51159;-42
2021/06/26 02:51:44;;;;;;;;;3.25;3.25;;;;;24.18;50.76;101349.69;5012894;28;51222;-45
2021/06/26 02:54:09;;;;;;;;;3.00;3.00;;;;;24.17;50.70;101346.03;5011790;28;52918;-42
2021/06/26 02:56:34;;;;;;;;;3.75;3.00;;;;;24.18;50.38;101347.75;5014876;28;51130;-41
2021/06/26 02:59:00;;;;;;;;;4.00;3.00;;;;;24.17;50.42;101346.03;5027857;28;51045;-42
2021/06/26 03:01:25;;;;;;;;;5.25;2.00;;;;;24.17;50.42;101351.56;5017018;28;51121;-41
2021/06/26 03:03:50;;;;;;;;;3.00;3.00;;;;;24.17;50.49;101348.81;5025624;28;51830;-42
2021/06/26 03:06:16;;;;;;;;;3.00;3.00;;;;;24.17;50.53;101340.50;5018820;28;51192;-41
2021/06/26 03:08:41;;;;;;;;;2.25;2.25;;;;;24.17;50.86;101343.28;5013766;28;51032;-42
2021/06/26 03:11:06;;;;;;;;;4.00;3.00;;;;;24.17;50.64;101340.50;5014287;28;51059;-41
2021/06/26 03:13:32;;;;;;;;;2.25;2.25;;;;;24.18;50.60;101338.63;5012861;28;51810;-41
2021/06/26 03:15:57;;;;;;;;;4.50;3.00;;;;;24.16;50.42;101341.59;5014846;28;51048;-42
2021/06/26 03:18:23;;;;;;;;;3.25;2.25;;;;;24.16;50.95;101341.59;5020740;28;51042;-44
2021/06/26 03:20:48;;;;;;;;;2.00;2.00;;;;;24.16;50.94;101341.59;5019768;28;51035;-43
2021/06/26 03:23:13;;;;;;;;;4.50;3.00;;;;;24.14;50.78;101343.75;5015104;27;50982;-41
2021/06/26 03:25:39;;;;;;;;;3.00;3.00;;;;;24.15;50.55;101344.59;5017108;28;51144;-42
2021/06/26 03:28:04;;;;;;;;;3.00;3.00;;;;;24.15;50.73;101342.66;5035082;27;51084;-44
2021/06/26 03:30:30;;;;;;;;;2.25;2.25;;;;;24.15;50.46;101348.22;5015165;28;51002;-44
2021/06/26 03:32:55;;;;;;;;;4.00;3.00;;;;;24.14;50.76;101354.81;5015019;28;51159;-43
2021/06/26 03:35:21;;;;;;;;;2.50;2.50;;;;;24.15;50.34;101344.59;5018461;28;50999;-43
2021/06/26 03:37:46;;;;;;;;;2.00;2.00;;;;;24.16;50.56;101349.06;5021021;28;50962;-42
2021/06/26 03:40:12;;;;;;;;;3.00;3.00;;;;;24.14;50.73;101346.53;5017177;28;50965;-40
2021/06/26 03:42:37;;;;;;;;;4.25;2.75;;;;;24.14;50.97;101348.44;5017899;28;51700;-42
2021/06/26 03:45:04;;;;;;;;;3.25;3.25;;;;;24.13;50.77;101344.84;5014043;27;50957;-44
2021/06/26 03:47:29;;;;;;;;;4.00;3.00;;;;;24.13;50.53;101341.22;5019492;27;51177;-43
2021/06/26 03:49:55;;;;;;;;;4.50;4.00;;;;;24.13;50.67;101335.69;5020450;28;51168;-46
2021/06/26 03:52:20;;;;;;;;;3.50;2.00;;;;;24.13;50.90;101339.31;5034659;28;51844;-43
2021/06/26 03:54:46;;;;;;;;;5.00;3.00;;;;;24.12;50.74;101345.06;5020831;28;51006;-44
2021/06/26 03:57:11;;;;;;;;;3.50;3.00;;;;;24.12;50.61;101340.38;5015778;28;50985;-41
2021/06/26 03:59:36;;;;;;;;;2.25;2.25;;;;;24.11;50.65;101344.22;5014516;27;51351;-42
2021/06/26 04:02:06;;;;;;;;;3.00;3.00;;;;;24.11;50.53;101347.00;5016388;28;51793;-42
2021/06/26 04:04:33;;;;;;;;;3.00;3.00;;;;;24.09;50.71;101340.88;5023555;27;52671;-42
2021/06/26 04:06:58;;;;;;;;;3.25;3.00;;;;;24.10;50.82;101337.00;5017105;28;51222;-43
2021/06/26 04:09:24;;;;;;;;;4.50;3.75;;;;;24.11;51.02;101340.63;5022833;27;50992;-42
2021/06/26 04:11:49;;;;;;;;;5.00;4.50;;;;;24.10;50.88;101342.53;5029439;28;52905;-40
2021/06/26 04:14:14;;;;;;;;;4.00;3.75;;;;;24.09;50.80;101346.41;5021878;28;51109;-40
2021/06/26 04:16:40;;;;;;;;;3.00;3.00;;;;;24.10;50.90;101352.78;5017651;28;51440;-42
2021/06/26 04:19:05;;;;;;;;;4.00;4.00;;;;;24.10;51.09;101348.09;5020965;28;51298;-43
2021/06/26 04:21:31;;;;;;;;;4.00;3.75;;;;;24.09;51.10;101351.09;5021409;28;52662;-41
2021/06/26 04:23:56;;;;;;;;;6.25;3.50;;;;;24.09;50.64;101357.47;5015544;28;51098;-42
2021/06/26 04:26:21;;;;;;;;;3.75;2.75;;;;;24.08;50.95;101350.25;5018770;28;51266;-43
2021/06/26 04:28:47;;;;;;;;;1.75;0.75;;;;;24.09;50.92;101359.38;5029636;27;51142;-44
2021/06/26 04:31:12;;;;;;;;;3.50;3.50;;;;;24.10;50.79;101358.31;5015771;28;51775;-42
2021/06/26 04:33:37;;;;;;;;;3.00;3.00;;;;;24.10;50.91;101359.16;5014764;27;51076;-42
2021/06/26 04:36:05;;;;;;;;;3.00;3.00;;;;;24.10;50.84;101367.47;5014764;27;51586;-41
2021/06/26 04:38:30;;;;;;;;;3.25;3.25;;;;;24.11;51.00;101354.47;5014523;28;51153;-43
2021/06/26 04:40:55;;;;;;;;;6.00;4.00;;;;;24.10;50.87;101355.53;5015397;28;52214;-41
2021/06/26 04:43:21;;;;;;;;;3.75;3.00;;;;;24.09;51.17;101349.16;5020227;28;50880;-41
2021/06/26 04:45:47;;;;;;;;;3.00;3.00;;;;;24.09;51.00;101353.84;5019204;28;51510;-42
2021/06/26 04:48:17;;;;;;;;;4.75;4.00;;;;;24.07;50.99;101354.09;5017950;28;50994;-44
2021/06/26 04:50:42;;;;;;;;;5.00;4.50;;;;;24.08;50.78;101363.25;5015837;28;51996;-41
2021/06/26 04:53:07;;;;;;;;;4.25;2.00;;;;;24.06;51.27;101360.69;5015029;28;51125;-44
2021/06/26 04:55:33;;;;;;;;;4.25;4.00;;;;;24.06;51.37;101363.44;5014977;28;51225;-42
2021/06/26 04:57:58;;;;;;;;;5.50;4.25;;;;;24.06;51.17;101357.06;5016471;28;51174;-43
2021/06/26 05:00:24;;;;;;;;;4.50;4.50;;;;;24.06;51.27;101362.59;5033034;28;53707;-44
2021/06/26 05:02:49;;;;;;;;;4.75;4.75;;;;;24.06;50.92;101362.59;5016579;28;51064;-44
2021/06/26 05:05:14;;;;;;;;;5.00;5.00;;;;;24.05;50.90;101360.91;5033830;28;51082;-44
2021/06/26 05:07:40;;;;;;;;;4.00;4.00;;;;;24.05;51.54;101349.84;5017821;28;50906;-42
2021/06/26 05:10:06;;;;;;;;;5.00;4.00;;;;;24.04;51.49;101348.16;5015993;27;51862;-42
2021/06/26 05:12:31;;;;;;;;;5.75;5.75;;;;;24.05;51.03;101356.22;5019315;28;50910;-42
2021/06/26 05:14:56;;;;;;;;;5.50;5.50;;;;;24.03;51.25;101355.63;5018284;28;51078;-44
2021/06/26 05:17:22;;;;;;;;;4.50;4.50;;;;;24.03;50.92;101347.31;5020561;28;51197;-44
2021/06/26 05:19:47;;;;;;;;;5.00;4.75;;;;;24.03;51.38;101355.63;5024138;28;51240;-44
2021/06/26 05:22:13;;;;;;;;;3.00;3.00;;;;;24.02;51.53;101356.69;5030684;27;50971;-42
2021/06/26 05:24:39;;;;;;;;;5.00;4.00;;;;;24.03;51.08;101358.38;5018899;27;51303;-44
2021/06/26 05:27:05;;;;;;;;;4.00;4.00;;;;;24.03;51.44;101361.16;5026747;27;51277;-43
2021/06/26 05:29:31;;;;;;;;;3.25;3.25;;;;;24.03;51.17;101363.09;5057853;27;51157;-44
2021/06/26 05:31:57;;;;;;;;;4.00;4.00;;;;;24.02;51.34;101365.00;5018848;28;50945;-43
2021/06/26 05:34:22;;;;;;;;;5.00;5.00;;;;;24.03;50.95;101363.09;5018194;27;51165;-46
2021/06/26 05:36:48;;;;;;;;;4.00;4.00;;;;;24.02;51.15;101366.94;5015854;27;51147;-42
2021/06/26 05:39:13;;;;;;;;;4.00;3.00;;;;;24.03;50.94;101368.63;5016681;28;51770;-44
2021/06/26 05:41:38;;;;;;;;;3.00;3.00;;;;;24.02;51.10;101365.00;5013875;28;50913;-44
2021/06/26 05:44:04;;;;;;;;;3.75;3.50;;;;;24.02;51.46;101366.94;5026226;27;51053;-41
2021/06/26 05:46:29;;;;;;;;;3.50;3.50;;;;;24.01;51.22;101371.63;5020072;28;51889;-41
2021/06/26 05:48:55;;;;;;;;;3.75;3.25;;;;;24.01;51.34;101377.16;5018396;28;51806;-42
2021/06/26 05:51:21;;;;;;;;;2.25;2.25;;;;;24.02;51.26;101380.75;5038006;28;50495;-44
2021/06/26 05:53:46;;;;;;;;;4.00;4.00;;;;;24.00;51.09;101380.16;5020459;28;51046;-45
2021/06/26 05:56:11;;;;;;;;;2.50;2.50;;;;;24.00;51.23;101374.63;5014403;27;51294;-43
2021/06/26 05:58:37;;;;;;;;;4.00;4.00;;;;;23.99;51.36;101370.19;5029138;28;53162;-42
2021/06/26 06:01:07;;;;;;;;;4.50;4.00;;;;;24.00;50.98;101381.00;5014054;28;51054;-43
2021/06/26 06:03:35;;;;;;;;;2.75;2.75;;;;;23.99;51.16;101379.31;5016777;27;51131;-43
2021/06/26 06:06:00;;;;;;;;;3.50;2.75;;;;;23.99;51.53;101378.47;5017593;28;50973;-42
2021/06/26 06:08:26;;;;;;;;;3.00;3.00;;;;;23.99;51.22;101382.09;5016960;28;52074;-42
2021/06/26 06:10:51;;;;;;;;;4.75;3.00;;;;;23.99;50.85;101376.56;5014025;28;51042;-45
2021/06/26 06:13:18;;;;;;;;;7.00;4.00;;;;;23.98;50.75;101383.16;5014526;28;50974;-44
2021/06/26 06:15:45;;;;;;;;;3.00;3.00;;;;;23.98;50.94;101383.16;5013975;28;51003;-44
2021/06/26 06:18:11;;;;;;;;;2.00;2.00;;;;;23.98;50.96;101385.94;5015318;28;51962;-41
2021/06/26 06:20:37;;;;;;;;;5.50;4.00;;;;;23.96;51.18;101382.53;5016395;27;51189;-46
2021/06/26 06:23:03;;;;;;;;;5.00;4.25;;;;;23.97;50.95;101380.59;5014899;28;51045;-48
2021/06/26 06:25:29;;;;;;;;;3.00;2.75;;;;;23.97;51.01;101380.59;5016543;28;51239;-42
2021/06/26 06:27:54;;;;;;;;;2.50;2.50;;;;;23.96;51.17;101384.44;5051367;27;51227;-41
2021/06/26 06:30:20;;;;;;;;;4.00;4.00;;;;;23.96;50.83;101384.44;5015561;28;50912;-41
2021/06/26 06:32:46;;;;;;;;;3.75;2.50;;;;;23.95;50.68;101391.91;5031979;28;51303;-43
2021/06/26 06:35:12;;;;;;;;;2.25;2.25;;;;;23.95;50.81;101391.06;5032659;28;50903;-42
2021/06/26 06:37:38;;;;;;;;;3.50;2.25;;;;;23.93;50.77;101391.31;5012759;28;52467;-48
2021/06/26 06:40:05;;;;;;;;;2.00;2.00;;;;;23.91;50.82;101399.00;5015288;28;50832;-45
2021/06/26 06:42:33;;;;;;;;;4.00;2.00;;;;;23.89;50.98;101381.78;5017438;28;51050;-44
2021/06/26 06:44:58;;;;;;;;;3.00;3.00;;;;;23.88;51.26;101377.34;5015552;27;51895;-42
2021/06/26 06:47:23;;;;;;;;;2.75;2.75;;;;;23.88;51.17;101371.81;5014364;28;51871;-47
2021/06/26 06:49:49;;;;;;;;;2.00;2.00;;;;;23.86;50.80;101369.28;5013672;28;51219;-44
2021/06/26 06:52:14;;;;;;;;;6.50;5.00;;;;;23.86;50.99;101379.47;5027472;28;51005;-45
2021/06/26 06:54:39;;;;;;;;;3.00;3.00;;;;;23.84;51.18;101384.41;5028447;27;51308;-46
2021/06/26 06:57:05;;;;;;;;;3.50;3.50;;;;;23.83;51.10;101391.00;5018037;28;50944;-45
2021/06/26 06:59:30;;;;;;;;;6.00;4.00;;;;;23.83;51.46;101393.78;5019560;28;50972;-45
2021/06/26 07:01:58;;;;;;;;;4.50;3.25;;;;;23.80;51.07;101385.94;5028356;27;51122;-50
2021/06/26 07:04:23;;;;;;;;;6.25;4.25;;;;;23.79;51.31;101390.63;5029292;27;51285;-44
2021/06/26 07:06:48;;;;;;;;;2.00;2.00;;;;;23.78;51.32;101394.47;5013885;27;51598;-46
2021/06/26 07:09:14;;;;;;;;;5.50;4.00;;;;;23.76;51.33;101393.00;5032961;27;51126;-47
2021/06/26 07:11:39;;;;;;;;;2.50;2.50;;;;;23.76;51.59;101402.19;5017292;27;51186;-52
2021/06/26 07:14:05;;;;;;;;;3.25;3.25;;;;;23.75;51.06;101403.22;5015882;27;51017;-44
2021/06/26 07:16:30;;;;;;;;;3.50;2.25;;;;;23.74;51.73;101404.28;5017453;27;50993;-43
2021/06/26 07:18:55;;;;;;;;;3.00;3.00;;;;;23.74;51.63;101404.28;5014153;28;51146;-44
2021/06/26 07:21:21;;;;;;;;;2.00;2.00;;;;;23.74;51.50;101409.81;5013684;28;51143;-42
2021/06/26 07:23:46;;;;;;;;;2.75;2.75;;;;;23.74;51.96;101404.28;5015478;27;51173;-43
2021/06/26 07:26:11;;;;;;;;;3.25;2.75;;;;;23.75;52.19;101405.13;5013582;28;51106;-45
2021/06/26 07:28:37;;;;;;;;;3.00;3.00;;;;;23.76;51.49;101413.25;5015964;27;51228;-44
2021/06/26 07:31:02;;;;;;;;;2.50;2.00;;;;;23.78;51.84;101411.06;5013901;27;51145;-44
2021/06/26 07:33:27;;;;;;;;;2.00;2.00;;;;;23.78;51.82;101410.25;5016328;28;51167;-45
2021/06/26 07:35:53;;;;;;;;;5.75;4.50;;;;;23.77;51.48;101401.09;5017153;28;51985;-46
2021/06/26 07:38:18;;;;;;;;;3.25;3.25;;;;;23.80;51.61;101408.06;5014098;28;51149;-43
2021/06/26 07:40:43;;;;;;;;;5.25;3.50;;;;;23.80;51.74;101406.16;5015355;28;51251;-42
2021/06/26 07:43:10;;;;;;;;;4.00;3.25;;;;;23.79;51.64;101404.47;5016080;28;51150;-46
2021/06/26 07:45:35;;;;;;;;;2.50;2.50;;;;;23.80;51.89;101402.53;5017634;27;51097;-45
2021/06/26 07:48:00;;;;;;;;;2.25;2.25;;;;;23.81;51.91;101398.69;5025587;28;51323;-48
2021/06/26 07:50:26;;;;;;;;;4.00;4.00;;;;;23.81;52.08;101407.00;5015998;28;51233;-44
2021/06/26 07:52:51;;;;;;;;;3.00;1.25;;;;;23.82;51.92;101408.69;5016971;28;51727;-49
2021/06/26 07:55:16;;;;;;;;;4.00;3.50;;;;;23.80;51.88;101408.06;5017740;28;50851;-45
2021/06/26 07:57:42;;;;;;;;;3.00;3.00;;;;;23.79;52.48;101404.47;5013753;28;51091;-52
2021/06/26 08:00:08;;;;;;;;;5.00;4.50;;;;;23.78;52.77;101400.00;5015346;28;50965;-49
2021/06/26 08:02:34;;;;;;;;;3.25;3.25;;;;;23.78;52.77;101401.94;5012187;28;51596;-57
2021/06/26 08:04:59;;;;;;;;;3.75;2.50;;;;;23.77;52.30;101397.47;5004233;28;51725;-53
2021/06/26 08:07:25;;;;;;;;;4.00;3.25;;;;;23.75;52.70;101400.44;5017861;28;51491;-56
2021/06/26 08:09:50;;;;;;;;;4.75;4.00;;;;;23.75;52.36;101386.63;5018531;27;51112;-56
2021/06/26 08:12:17;;;;;;;;;5.50;5.00;;;;;23.75;52.78;101389.38;5015811;28;51179;-52
2021/06/26 08:14:43;;;;;;;;;5.00;3.75;;;;;23.75;52.78;101389.38;5013219;27;51099;-51
2021/06/26 08:17:13;;;;;;;;;4.25;4.25;;;;;23.74;52.90;101396.00;5020765;27;51376;-47
2021/06/26 08:19:39;;;;;;;;;4.25;4.00;;;;;23.73;53.26;101387.94;5007950;28;51103;-46
2021/06/26 08:22:06;;;;;;;;;6.50;5.00;;;;;23.71;52.87;101388.16;5012988;28;51048;-44
2021/06/26 08:24:33;;;;;;;;;7.75;6.00;;;;;23.70;52.89;101385.63;5015996;28;51255;-47
2021/06/26 08:26:59;;;;;;;;;7.50;7.50;;;;;23.69;52.91;101384.78;5021420;27;51127;-51
2021/06/26 08:29:25;;;;;;;;;4.75;4.75;;;;;23.69;53.54;101383.97;5045128;27;50582;-48
2021/06/26 08:31:50;;;;;;;;;7.25;7.00;;;;;23.69;53.26;101375.66;5021273;28;51268;-48
2021/06/26 08:34:16;;;;;;;;;4.00;4.00;;;;;23.69;53.61;101378.44;5004803;28;51067;-47
2021/06/26 08:36:41;;;;;;;;;6.50;6.00;;;;;23.69;53.82;101378.44;5010882;28;50903;-47
2021/06/26 08:39:06;;;;;;;;;3.50;2.50;;;;;23.71;53.42;101387.31;5032998;28;51294;-51
2021/06/26 08:41:40;;;;;;;;;5.75;4.75;;;;;23.70;53.80;101386.50;5017404;28;50480;-49
2021/06/26 08:44:06;;;;;;;;;6.25;5.75;;;;;23.70;53.77;101386.50;5016428;28;51020;-49
2021/06/26 08:46:32;;;;;;;;;6.25;6.00;;;;;23.70;53.22;101389.25;5015795;28;51298;-47
2021/06/26 08:48:57;;;;;;;;;8.00;7.00;;;;;23.72;53.82;101389.00;5014674;28;51071;-47
2021/06/26 08:51:23;;;;;;;;;6.50;4.75;;;;;23.71;53.42;101396.47;5013417;28;51136;-46
2021/06/26 08:53:48;;;;;;;;;7.25;7.25;;;;;23.71;53.21;101401.16;5014196;27;51299;-48
2021/06/26 08:56:14;;;;;;;;;6.50;6.50;;;;;23.71;53.61;101401.16;5015459;28;51041;-45
2021/06/26 08:58:39;;;;;;;;;7.00;6.00;;;;;23.71;53.67;101398.38;5016926;27;51213;-45
2021/06/26 09:01:05;;;;;;;;;6.00;5.00;;;;;23.72;53.52;101397.31;5027009;28;51080;-47
2021/06/26 09:03:30;;;;;;;;;8.25;6.25;;;;;23.72;53.86;101398.16;5024712;28;51038;-48
2021/06/26 09:06:03;;;;;;;;;6.75;5.75;;;;;23.72;53.35;101389.84;5013722;28;51101;-48
2021/06/26 09:08:28;;;;;;;;;10.00;8.00;;;;;23.74;53.81;101384.09;5029994;28;51232;-46
2021/06/26 09:10:53;;;;;;;;;6.75;3.75;;;;;23.75;53.65;101394.91;5010528;28;51563;-48
2021/06/26 09:13:24;;;;;;;;;7.00;6.00;;;;;23.75;53.42;101396.84;5012259;27;51781;-45
2021/06/26 09:15:50;;;;;;;;;7.75;7.00;;;;;23.75;53.75;101391.31;5012646;28;51331;-49
2021/06/26 09:18:20;;;;;;;;;9.00;7.75;;;;;23.75;54.25;101388.53;5031638;27;51209;-50
2021/06/26 09:20:51;;;;;;;;;8.50;6.00;;;;;23.76;53.83;101384.69;5013996;28;51304;-52
2021/06/26 09:23:20;;;;;;;;;8.50;7.00;;;;;23.77;54.17;101378.13;5013685;27;51109;-46
2021/06/26 09:25:46;;;;;;;;;6.50;6.25;;;;;23.76;53.94;101382.81;5014365;28;51096;-43
2021/06/26 09:28:25;;;;;;;;;8.25;7.00;;;;;23.78;53.64;101375.13;5063767;27;51505;-42
2021/06/26 09:30:52;;;;;;;;;6.25;6.25;;;;;23.78;53.58;101383.41;5009030;27;51026;-44
2021/06/26 09:33:21;;;;;;;;;7.25;5.75;;;;;23.80;53.73;101381.25;5012429;28;52956;-48
2021/06/26 09:36:10;;;;;;;;;6.00;6.00;;;;;23.81;54.27;101358.03;5016184;27;51493;-48
2021/06/26 09:38:54;;;;;;;;;8.50;6.25;;;;;23.82;53.61;101367.19;5013066;27;51096;-49
2021/06/26 09:41:19;;;;;;;;;5.25;5.25;;;;;23.83;53.48;101368.88;5012522;28;51039;-46
2021/06/26 09:43:45;;;;;;;;;8.75;6.50;;;;;23.83;53.59;101361.41;5013055;28;50949;-48
2021/06/26 09:46:15;;;;;;;;;7.50;6.75;;;;;23.86;53.71;101363.75;5013811;28;51058;-45
2021/06/26 09:48:50;;;;;;;;;7.00;7.00;;;;;23.90;53.47;101364.09;5014095;28;51150;-49
2021/06/26 09:51:30;;;;;;;;;8.00;6.50;;;;;23.92;53.14;101366.63;5030514;27;51019;-48
2021/06/26 09:54:01;;;;;;;;;10.50;6.75;;;;;23.93;53.52;101371.09;5016461;27;52020;-48
2021/06/26 09:56:36;;;;;;;;;12.25;8.50;;;;;23.94;53.29;101372.78;5014219;28;51372;-48
2021/06/26 09:59:02;;;;;;;;;10.25;9.50;;;;;23.95;53.21;101382.75;5034090;27;51261;-46
2021/06/26 10:01:27;;;;;;;;;12.00;8.75;;;;;23.95;52.74;101383.59;5025117;28;50983;-46
2021/06/26 10:03:53;;;;;;;;;8.00;7.25;;;;;23.96;53.01;101387.22;5022124;28;51314;-49
2021/06/26 10:06:21;;;;;;;;;9.00;8.00;;;;;23.95;53.07;101383.59;5018914;28;50914;-47
2021/06/26 10:08:47;;;;;;;;;7.75;7.00;;;;;23.97;52.79;101389.78;5016686;28;51177;-48
2021/06/26 10:11:13;;;;;;;;;7.75;7.50;;;;;23.96;52.60;101382.53;5022554;27;51391;-47
2021/06/26 10:13:43;;;;;;;;;10.50;9.25;;;;;23.97;52.82;101387.00;5022423;27;51178;-47
2021/06/26 10:16:08;;;;;;;;;10.25;9.25;;;;;23.95;52.45;101380.84;5013805;27;51160;-45
2021/06/26 10:18:35;;;;;;;;;8.25;8.00;;;;;23.95;52.82;101394.69;5012786;28;51116;-46
2021/06/26 10:21:01;;;;;;;;;8.00;8.00;;;;;23.94;52.48;101383.84;5013184;28;51237;-47
2021/06/26 10:23:34;;;;;;;;;12.50;11.00;;;;;23.93;52.63;101385.78;5014441;28;53344;-46
2021/06/26 10:26:01;;;;;;;;;9.00;9.00;;;;;23.93;53.09;101379.41;5016354;28;50973;-48
2021/06/26 10:28:27;;;;;;;;;8.00;7.50;;;;;23.93;52.14;101377.47;5052629;27;51073;-46
2021/06/26 10:30:58;;;;;;;;;10.25;7.75;;;;;23.94;52.21;101370.00;5012760;27;51482;-46
2021/06/26 10:33:26;;;;;;;;;9.75;8.75;;;;;23.94;52.33;101381.91;5007921;28;52015;-51
2021/06/26 10:35:54;;;;;;;;;9.75;9.25;;;;;23.95;52.18;101380.00;5004147;28;50926;-47
2021/06/26 10:38:21;;;;;;;;;8.75;8.75;;;;;23.95;52.02;101380.84;5013683;28;51073;-49
2021/06/26 10:40:52;;;;;;;;;9.75;9.25;;;;;23.95;52.38;101377.22;5015521;28;51108;-47
2021/06/26 10:43:28;;;;;;;;;10.75;10.25;;;;;23.97;52.53;101375.06;5013839;28;51019;-50
2021/06/26 10:46:10;;;;;;;;;10.25;9.00;;;;;23.97;52.22;101375.06;5011401;28;51019;-45
2021/06/26 10:48:37;;;;;;;;;11.00;10.25;;;;;23.97;52.32;101370.41;5026951;28;51097;-50
2021/06/26 10:51:03;;;;;;;;;9.75;8.75;;;;;23.97;51.99;101367.66;5012234;28;51271;-45
2021/06/26 10:53:40;;;;;;;;;10.50;10.00;;;;;23.98;52.20;101365.72;5012051;28;51087;-48
2021/06/26 10:56:12;;;;;;;;;9.25;9.25;;;;;23.98;51.81;101369.34;5015766;28;51023;-46
2021/06/26 10:58:39;;;;;;;;;14.75;9.50;;;;;23.97;51.95;101369.53;5016582;28;50968;-48
2021/06/26 11:01:18;;;;;;;;;9.25;8.75;;;;;23.97;51.90;101364.88;5013801;27;51205;-49
2021/06/26 11:03:45;;;;;;;;;10.75;10.25;;;;;23.98;51.71;101368.50;5012640;28;52222;-48
2021/06/26 11:06:17;;;;;;;;;13.00;10.75;;;;;23.97;51.95;101369.53;5011085;28;51052;-49
2021/06/26 11:08:53;;;;;;;;;9.00;9.00;;;;;23.98;52.06;101371.25;5012398;28;51189;-49
2021/06/26 11:11:26;;;;;;;;;12.75;10.75;;;;;23.96;52.17;101368.69;5013607;28;51092;-46
2021/06/26 11:14:03;;;;;;;;;12.00;12.00;;;;;23.96;52.09;101363.16;5013127;28;53852;-49
2021/06/26 11:16:29;;;;;;;;;10.50;10.50;;;;;23.97;51.68;101359.34;5012732;27;51319;-47
2021/06/26 11:18:54;;;;;;;;;13.50;10.25;;;;;23.97;51.95;101353.81;5013035;28;51106;-50
2021/06/26 11:21:20;;;;;;;;;14.00;13.25;;;;;23.97;51.58;101342.75;5020157;27;50837;-49